createdAt,value
2022-12-24T00:01:04.724Z,27.33
2022-12-24T00:03:32.740Z,20.30
2022-12-24T00:06:00.486Z,26.10
2022-12-24T00:08:28.128Z,27.37
2022-12-24T00:10:55.717Z,21.47
2022-12-24T00:13:23.411Z,21.70
2022-12-24T00:15:51.049Z,19.70
2022-12-24T00:18:18.735Z,26.77
2022-12-24T00:20:50.050Z,22.70
2022-12-24T00:23:18.123Z,25.73
2022-12-24T00:25:46.006Z,18.57
2022-12-24T00:28:15.713Z,27.87
2022-12-24T00:30:43.608Z,26.93
2022-12-24T00:33:11.567Z,22.70
2022-12-24T00:35:40.063Z,21.40
2022-12-24T00:38:08.218Z,20.23
2022-12-24T00:40:35.909Z,25.13
2022-12-24T00:43:06.364Z,30.93
2022-12-24T00:45:34.033Z,31.13
2022-12-24T00:48:01.659Z,23.27
2022-12-24T00:50:29.305Z,24.27
2022-12-24T00:52:56.911Z,26.47
2022-12-24T00:55:24.638Z,24.97
2022-12-24T00:57:52.283Z,24.83
2022-12-24T01:00:20.147Z,20.47
2022-12-24T01:02:48.052Z,29.43
2022-12-24T01:05:15.929Z,22.90
2022-12-24T01:07:44.690Z,30.43
2022-12-24T01:10:14.374Z,23.07
2022-12-24T01:12:42.523Z,24.77
2022-12-24T01:15:10.883Z,21.43
2022-12-24T01:17:38.679Z,25.83
2022-12-24T01:20:06.913Z,20.43
2022-12-24T01:22:34.635Z,25.50
2022-12-24T01:25:02.243Z,18.60
2022-12-24T01:27:33.132Z,23.63
2022-12-24T01:30:00.866Z,20.80
2022-12-24T01:32:28.540Z,25.50
2022-12-24T01:34:56.291Z,31.03
2022-12-24T01:37:24.352Z,17.93
2022-12-24T01:39:52.066Z,24.73
2022-12-24T01:42:24.202Z,24.67
2022-12-24T01:44:52.228Z,22.80
2022-12-24T01:47:23.155Z,32.77
2022-12-24T01:49:58.119Z,29.00
2022-12-24T01:52:28.759Z,23.20
2022-12-24T01:55:01.767Z,20.43
2022-12-24T01:57:32.315Z,30.63
2022-12-24T02:00:03.004Z,27.13
2022-12-24T02:02:31.432Z,22.87
2022-12-24T02:05:15.074Z,31.43
2022-12-24T02:07:45.417Z,27.97
2022-12-24T02:10:13.707Z,30.80
2022-12-24T02:12:42.523Z,28.27
2022-12-24T02:15:11.574Z,20.33
2022-12-24T02:17:56.440Z,21.60
2022-12-24T02:20:24.084Z,24.83
2022-12-24T02:22:51.694Z,16.40
2022-12-24T02:25:31.301Z,27.67
2022-12-24T02:28:14.771Z,20.30
2022-12-24T02:30:48.423Z,24.60
2022-12-24T02:33:21.078Z,23.10
2022-12-24T02:36:00.719Z,20.00
2022-12-24T02:38:37.442Z,24.03
2022-12-24T02:41:15.371Z,30.33
2022-12-24T02:43:47.191Z,26.03
2022-12-24T02:46:17.445Z,26.60
2022-12-24T02:48:47.335Z,25.67
2022-12-24T02:51:15.303Z,24.20
2022-12-24T02:53:43.399Z,22.60
2022-12-24T02:56:20.526Z,21.93
2022-12-24T02:58:48.139Z,22.47
2022-12-24T03:01:36.409Z,20.00
2022-12-24T03:04:06.153Z,25.70
2022-12-24T03:06:52.615Z,38.37
2022-12-24T03:09:45.651Z,24.40
2022-12-24T03:12:16.309Z,28.87
2022-12-24T03:14:47.479Z,16.97
2022-12-24T03:17:15.549Z,24.00
2022-12-24T03:19:43.174Z,31.93
2022-12-24T03:22:12.361Z,28.23
2022-12-24T03:24:40.245Z,18.70
2022-12-24T03:27:10.411Z,20.40
2022-12-24T03:29:41.779Z,25.70
2022-12-24T03:32:09.563Z,24.17
2022-12-24T03:34:37.343Z,21.40
2022-12-24T03:37:05.203Z,14.90
2022-12-24T03:39:32.863Z,18.53
2022-12-24T03:42:00.637Z,22.10
2022-12-24T03:44:28.231Z,18.10
2022-12-24T03:46:58.705Z,18.07
2022-12-24T03:49:26.406Z,17.53
2022-12-24T03:51:54.023Z,17.77
2022-12-24T03:54:21.759Z,13.00
2022-12-24T03:56:52.079Z,21.40
2022-12-24T03:59:19.822Z,16.90
2022-12-24T04:01:47.710Z,16.93
2022-12-24T04:04:18.046Z,13.20
2022-12-24T04:06:45.757Z,14.80
2022-12-24T04:09:13.401Z,14.53
2022-12-24T04:11:41.031Z,15.80
2022-12-24T04:14:08.665Z,10.00
2022-12-24T04:16:39.180Z,18.77
2022-12-24T04:19:07.057Z,17.20
2022-12-24T04:21:34.696Z,15.07
2022-12-24T04:24:02.344Z,14.47
2022-12-24T04:26:29.983Z,11.33
2022-12-24T04:28:57.654Z,13.63
2022-12-24T04:31:25.324Z,14.90
2022-12-24T04:33:53.175Z,15.30
2022-12-24T04:36:21.062Z,14.97
2022-12-24T04:38:49.412Z,12.07
2022-12-24T04:41:23.305Z,11.23
2022-12-24T04:43:52.174Z,16.33
2022-12-24T04:46:22.661Z,16.57
2022-12-24T04:48:51.352Z,14.73
2022-12-24T04:51:19.759Z,18.23
2022-12-24T04:53:47.453Z,11.57
2022-12-24T04:56:16.707Z,16.50
2022-12-24T04:58:47.562Z,14.80
2022-12-24T05:01:17.982Z,15.60
2022-12-24T05:03:46.722Z,14.00
2022-12-24T05:06:15.708Z,17.90
2022-12-24T05:08:43.704Z,17.47
2022-12-24T05:11:11.656Z,21.90
2022-12-24T05:13:47.407Z,20.50
2022-12-24T05:16:19.470Z,17.73
2022-12-24T05:18:47.315Z,16.53
2022-12-24T05:21:19.010Z,17.53
2022-12-24T05:23:46.674Z,17.40
2022-12-24T05:26:21.716Z,15.77
2022-12-24T05:28:50.008Z,18.70
2022-12-24T05:31:17.776Z,23.73
2022-12-24T05:33:45.724Z,15.73
2022-12-24T05:36:15.538Z,16.17
2022-12-24T05:38:43.381Z,20.10
2022-12-24T05:41:11.112Z,21.50
2022-12-24T05:43:39.220Z,11.43
2022-12-24T05:46:08.215Z,11.30
2022-12-24T05:48:36.107Z,21.30
2022-12-24T05:51:08.659Z,11.90
2022-12-24T05:53:36.691Z,17.47
2022-12-24T05:56:08.363Z,17.87
2022-12-24T05:58:36.201Z,10.90
2022-12-24T06:01:04.958Z,25.83
2022-12-24T06:03:33.014Z,14.73
2022-12-24T06:06:01.353Z,20.83
2022-12-24T06:08:29.489Z,18.10
2022-12-24T06:11:00.999Z,18.43
2022-12-24T06:13:29.164Z,19.13
2022-12-24T06:15:57.651Z,14.60
2022-12-24T06:18:25.516Z,22.10
2022-12-24T06:20:53.787Z,21.03
2022-12-24T06:23:22.037Z,17.97
2022-12-24T06:25:49.929Z,16.73
2022-12-24T06:28:19.788Z,23.30
2022-12-24T06:30:48.466Z,16.17
2022-12-24T06:33:16.325Z,19.70
2022-12-24T06:35:45.425Z,27.40
2022-12-24T06:38:13.204Z,21.77
2022-12-24T06:40:41.314Z,20.23
2022-12-24T06:43:11.194Z,18.87
2022-12-24T06:45:39.182Z,21.70
2022-12-24T06:48:08.394Z,22.63
2022-12-24T06:50:36.057Z,21.00
2022-12-24T06:53:03.694Z,26.33
2022-12-24T06:55:31.613Z,18.30
2022-12-24T06:58:05.445Z,26.70
2022-12-24T07:00:33.394Z,16.20
2022-12-24T07:03:01.198Z,25.47
2022-12-24T07:05:34.013Z,20.20
2022-12-24T07:08:01.751Z,21.27
2022-12-24T07:10:29.379Z,18.23
2022-12-24T07:12:57.339Z,21.27
2022-12-24T07:15:26.186Z,18.90
2022-12-24T07:17:53.933Z,26.23
2022-12-24T07:20:21.603Z,23.97
2022-12-24T07:22:49.236Z,20.00
2022-12-24T07:25:16.909Z,21.87
2022-12-24T07:27:44.567Z,23.33
2022-12-24T07:30:12.411Z,19.17
2022-12-24T07:32:40.286Z,25.60
2022-12-24T07:35:08.276Z,30.40
2022-12-24T07:37:35.961Z,24.93
2022-12-24T07:40:03.768Z,22.20
2022-12-24T07:42:31.394Z,22.63
2022-12-24T07:44:58.972Z,24.20
2022-12-24T07:47:26.659Z,26.00
2022-12-24T07:49:54.279Z,21.83
2022-12-24T08:17:54.447Z,22.00
2022-12-24T08:20:22.248Z,25.30
2022-12-24T08:22:49.838Z,29.00
2022-12-24T08:25:17.519Z,23.33
2022-12-24T08:27:45.172Z,25.43
2022-12-24T08:30:19.029Z,21.47
2022-12-24T08:32:48.697Z,32.17
2022-12-24T08:35:16.401Z,21.77
2022-12-24T08:37:46.295Z,30.37
2022-12-24T08:40:14.009Z,22.67
2022-12-24T08:42:41.757Z,21.10
2022-12-24T08:45:12.121Z,28.07
2022-12-24T08:47:39.988Z,21.83
2022-12-24T08:50:08.075Z,28.47
2022-12-24T08:52:35.725Z,21.93
2022-12-24T08:55:03.534Z,24.30
2022-12-24T08:57:31.255Z,22.80
2022-12-24T08:59:58.865Z,26.13
2022-12-24T09:02:26.613Z,23.83
2022-12-24T09:04:54.323Z,25.00
2022-12-24T09:07:23.393Z,22.60
2022-12-24T09:09:51.033Z,32.20
2022-12-24T09:12:18.705Z,25.30
2022-12-24T09:14:46.517Z,17.27
2022-12-24T09:17:15.310Z,28.50
2022-12-24T09:19:42.918Z,24.73
2022-12-24T09:22:10.682Z,27.70
2022-12-24T09:24:38.464Z,28.70
2022-12-24T09:27:06.151Z,28.30
2022-12-24T09:29:33.787Z,22.80
2022-12-24T09:32:01.561Z,24.13
2022-12-24T09:34:30.635Z,32.03
2022-12-24T09:36:58.750Z,24.50
2022-12-24T09:39:29.534Z,24.50
2022-12-24T09:42:06.289Z,28.83
2022-12-24T09:44:42.894Z,15.47
2022-12-24T09:47:33.736Z,26.20
2022-12-24T09:50:05.767Z,32.80
2022-12-24T09:52:36.170Z,20.60
2022-12-24T09:55:24.130Z,24.47
2022-12-24T09:57:55.871Z,21.47
2022-12-24T10:00:28.329Z,26.37
2022-12-24T10:02:56.054Z,31.07
2022-12-24T10:05:44.081Z,22.17
2022-12-24T10:08:17.130Z,26.03
2022-12-24T10:10:50.869Z,30.20
2022-12-24T10:13:36.849Z,30.57
2022-12-24T10:16:11.747Z,24.73
2022-12-24T10:18:48.882Z,22.37
2022-12-24T10:21:36.160Z,27.07
2022-12-24T10:24:16.189Z,28.80
2022-12-24T10:26:44.067Z,26.47
2022-12-24T10:29:31.461Z,29.87
2022-12-24T10:32:10.418Z,27.73
2022-12-24T10:34:45.547Z,21.50
2022-12-24T10:37:26.478Z,29.77
2022-12-24T10:39:54.156Z,25.10
2022-12-24T10:42:24.247Z,19.37
2022-12-24T10:44:55.474Z,26.53
2022-12-24T10:47:23.314Z,30.90
2022-12-24T10:49:50.913Z,21.43
2022-12-24T10:52:20.674Z,26.23
2022-12-24T10:55:09.051Z,25.23
2022-12-24T10:57:36.840Z,23.17
2022-12-24T11:00:04.909Z,27.30
2022-12-24T11:02:38.334Z,25.57
2022-12-24T11:05:08.621Z,22.27
2022-12-24T11:07:36.348Z,20.03
2022-12-24T11:10:08.079Z,27.00
2022-12-24T11:12:37.860Z,25.47
2022-12-24T11:15:18.408Z,25.03
2022-12-24T11:17:53.709Z,28.03
2022-12-24T11:20:26.221Z,22.40
2022-12-24T11:22:54.533Z,31.00
2022-12-24T11:25:22.138Z,20.43
2022-12-24T11:27:50.654Z,24.30
2022-12-24T11:30:24.305Z,29.50
2022-12-24T11:33:11.953Z,32.03
2022-12-24T11:35:41.126Z,21.73
2022-12-24T11:38:08.746Z,28.30
2022-12-24T11:41:09.133Z,22.03
2022-12-24T11:43:44.950Z,31.13
2022-12-24T11:46:20.595Z,28.90
2022-12-24T11:48:48.833Z,28.27
2022-12-24T11:51:20.899Z,29.50
2022-12-24T11:53:50.607Z,25.97
2022-12-24T11:56:28.021Z,21.07
2022-12-24T11:58:57.490Z,27.63
2022-12-24T12:01:25.124Z,21.40
2022-12-24T12:03:55.290Z,19.90
2022-12-24T12:06:40.760Z,32.80
2022-12-24T12:09:15.843Z,27.90
2022-12-24T12:11:44.799Z,30.30
2022-12-24T12:14:32.681Z,27.67
2022-12-24T12:17:18.957Z,23.70
2022-12-24T12:19:49.758Z,22.83
2022-12-24T12:22:28.440Z,20.17
2022-12-24T12:24:57.375Z,23.87
2022-12-24T12:27:28.108Z,20.90
2022-12-24T12:30:00.886Z,22.97
2022-12-24T12:32:36.232Z,24.27
2022-12-24T12:35:16.099Z,25.13
2022-12-24T12:37:45.800Z,23.90
2022-12-24T12:40:17.726Z,22.80
2022-12-24T12:42:51.564Z,19.80
2022-12-24T12:45:29.792Z,27.83
2022-12-24T12:48:00.261Z,24.03
2022-12-24T12:50:35.919Z,23.73
2022-12-24T12:53:06.764Z,21.77
2022-12-24T12:55:39.875Z,21.30
2022-12-24T12:58:13.958Z,20.37
2022-12-24T13:00:42.861Z,27.90
2022-12-24T13:03:28.605Z,24.43
2022-12-24T13:06:19.444Z,20.13
2022-12-24T13:09:05.784Z,18.23
2022-12-24T13:11:57.451Z,26.67
2022-12-24T13:14:38.867Z,21.37
2022-12-24T13:17:12.470Z,28.13
2022-12-24T13:19:40.114Z,23.20
2022-12-24T13:22:15.479Z,26.00
2022-12-24T13:24:51.864Z,23.97
2022-12-24T13:27:20.159Z,14.80
2022-12-24T13:30:10.246Z,14.73
2022-12-24T13:32:39.444Z,19.27
2022-12-24T13:35:21.653Z,18.43
2022-12-24T13:37:49.782Z,22.90
2022-12-24T13:40:22.744Z,15.97
2022-12-24T13:42:59.529Z,17.87
2022-12-24T13:45:32.414Z,16.63
2022-12-24T13:48:13.748Z,19.73
2022-12-24T13:50:49.529Z,14.17
2022-12-24T13:53:23.388Z,18.80
2022-12-24T13:56:05.097Z,22.80
2022-12-24T13:58:33.846Z,12.33
2022-12-24T14:01:03.250Z,17.13
2022-12-24T14:03:42.212Z,15.57
2022-12-24T14:06:11.916Z,19.70
2022-12-24T14:08:44.459Z,17.57
2022-12-24T14:11:22.496Z,25.80
2022-12-24T14:13:50.218Z,19.00
2022-12-24T14:16:30.282Z,15.97
2022-12-24T14:19:04.040Z,15.77
2022-12-24T14:21:35.237Z,17.10
2022-12-24T14:24:07.524Z,19.47
2022-12-24T14:26:35.704Z,21.80
2022-12-24T14:29:25.511Z,21.67
2022-12-24T14:32:00.402Z,16.73
2022-12-24T14:34:28.166Z,18.93
2022-12-24T14:36:56.442Z,21.73
2022-12-24T14:39:33.075Z,16.97
2022-12-24T14:42:05.912Z,20.13
2022-12-24T14:44:39.738Z,19.03
2022-12-24T14:47:07.448Z,14.03
2022-12-24T14:49:46.187Z,25.40
2022-12-24T14:53:08.203Z,21.67
2022-12-24T14:55:40.155Z,23.37
2022-12-24T14:58:20.059Z,21.43
2022-12-24T15:00:47.875Z,27.77
2022-12-24T15:03:16.875Z,24.50
2022-12-24T15:05:44.955Z,19.33
2022-12-24T15:08:20.374Z,17.53
2022-12-24T15:10:51.994Z,20.17
2022-12-24T15:13:25.728Z,18.80
2022-12-24T15:15:54.977Z,19.93
2022-12-24T15:18:24.841Z,19.13
2022-12-24T15:20:57.207Z,23.77
2022-12-24T15:23:29.583Z,21.93
2022-12-24T15:26:26.561Z,18.07
2022-12-24T15:29:02.211Z,22.80
2022-12-24T15:31:34.677Z,28.07
2022-12-24T15:34:02.405Z,16.63
2022-12-24T15:36:31.834Z,28.17
2022-12-24T15:39:00.990Z,24.67
2022-12-24T15:41:30.765Z,23.33
2022-12-24T15:44:02.055Z,24.47
2022-12-24T15:46:32.298Z,17.60
2022-12-24T15:49:01.362Z,31.17
2022-12-24T15:51:39.857Z,18.20
2022-12-24T15:54:13.255Z,31.00
2022-12-24T15:56:42.449Z,20.60
2022-12-24T15:59:22.420Z,37.47
2022-12-24T16:01:50.203Z,27.77
2022-12-24T16:04:24.866Z,22.23
2022-12-24T16:06:59.432Z,19.93
2022-12-24T16:09:32.942Z,28.80
2022-12-24T16:12:03.361Z,25.20
2022-12-24T16:14:33.001Z,27.67
2022-12-24T16:17:02.348Z,23.77
2022-12-24T16:19:39.456Z,25.43
2022-12-24T16:22:08.081Z,33.10
2022-12-24T16:24:36.107Z,21.77
2022-12-24T16:27:11.032Z,25.47
2022-12-24T16:29:38.729Z,23.37
2022-12-24T16:32:06.599Z,22.17
2022-12-24T16:34:34.281Z,19.47
2022-12-24T16:37:01.885Z,24.80
2022-12-24T16:39:33.647Z,22.80
2022-12-24T16:42:02.422Z,28.03
2022-12-24T16:44:30.112Z,24.90
2022-12-24T16:46:59.273Z,27.83
2022-12-24T16:49:27.321Z,25.20
2022-12-24T16:51:55.109Z,27.33
2022-12-24T16:54:22.832Z,22.43
2022-12-24T16:56:50.558Z,29.67
2022-12-24T16:59:20.823Z,23.30
2022-12-24T17:01:49.009Z,24.60
2022-12-24T17:04:19.432Z,19.30
2022-12-24T17:06:49.236Z,21.70
2022-12-24T17:09:17.163Z,27.83
2022-12-24T17:11:44.794Z,17.10
2022-12-24T17:14:19.728Z,26.63
2022-12-24T17:16:48.107Z,22.50
2022-12-24T17:19:15.895Z,18.80
2022-12-24T17:21:43.645Z,26.80
2022-12-24T17:24:11.256Z,32.67
2022-12-24T17:26:38.931Z,25.43
2022-12-24T17:29:06.695Z,23.60
2022-12-24T17:31:37.174Z,24.40
2022-12-24T17:34:04.898Z,28.40
2022-12-24T17:36:32.512Z,29.47
2022-12-24T17:39:00.456Z,22.33
2022-12-24T17:41:28.112Z,32.93
2022-12-24T17:43:55.762Z,14.47
2022-12-24T17:46:23.981Z,28.13
2022-12-24T17:48:52.185Z,26.57
2022-12-24T17:51:23.322Z,27.13
2022-12-24T17:53:51.110Z,34.53
2022-12-24T17:56:18.960Z,24.47
2022-12-24T17:58:46.938Z,34.90
2022-12-24T18:01:18.103Z,42.73
2022-12-24T18:03:46.064Z,39.57
2022-12-24T18:06:14.218Z,39.23
2022-12-24T18:08:42.556Z,29.93
2022-12-24T18:11:21.037Z,33.97
2022-12-24T18:13:48.829Z,30.97
2022-12-24T18:16:32.870Z,25.63
2022-12-24T18:19:01.134Z,32.97
2022-12-24T18:21:32.906Z,33.20
2022-12-24T18:24:00.969Z,32.60
2022-12-24T18:26:31.537Z,31.67
2022-12-24T18:29:00.052Z,29.63
2022-12-24T18:31:31.344Z,36.57
2022-12-24T18:33:59.039Z,40.00
2022-12-24T18:36:26.697Z,37.77
2022-12-24T18:38:54.377Z,36.87
2022-12-24T18:41:23.486Z,33.47
2022-12-24T18:43:51.361Z,40.87
2022-12-24T18:46:20.869Z,39.70
2022-12-24T18:48:48.960Z,40.20
2022-12-24T18:51:17.267Z,66.37
2022-12-24T18:53:45.196Z,44.93
2022-12-24T18:56:17.170Z,52.63
2022-12-24T18:58:45.315Z,48.20
2022-12-24T19:01:17.700Z,41.33
2022-12-24T19:03:45.781Z,30.47
2022-12-24T19:06:13.765Z,32.47
2022-12-24T19:08:59.018Z,36.90
2022-12-24T19:11:29.084Z,30.60
2022-12-24T19:13:56.708Z,30.97
2022-12-24T19:16:24.575Z,31.80
2022-12-24T19:18:52.308Z,39.87
2022-12-24T19:21:20.185Z,34.70
2022-12-24T19:23:47.928Z,33.07
2022-12-24T19:26:19.011Z,36.73
2022-12-24T19:28:46.991Z,37.67
2022-12-24T19:31:16.012Z,36.40
2022-12-24T19:33:44.845Z,33.90
2022-12-24T19:36:13.933Z,29.30
2022-12-24T19:38:41.783Z,35.97
2022-12-24T19:41:28.684Z,42.97
2022-12-24T19:43:58.080Z,36.90
2022-12-24T19:46:30.831Z,33.73
2022-12-24T19:48:59.728Z,41.60
2022-12-24T19:51:28.002Z,39.67
2022-12-24T19:53:56.564Z,33.83
2022-12-24T19:56:24.962Z,38.57
2022-12-24T19:58:53.026Z,35.57
2022-12-24T20:01:25.266Z,31.63
2022-12-24T20:03:53.696Z,43.83
2022-12-24T20:06:22.824Z,41.87
2022-12-24T20:08:50.676Z,32.73
2022-12-24T20:11:19.370Z,37.37
2022-12-24T20:13:47.269Z,33.33
2022-12-24T20:16:21.671Z,33.80
2022-12-24T20:18:53.194Z,37.30
2022-12-24T20:21:21.234Z,37.00
2022-12-24T20:23:48.891Z,35.17
2022-12-24T20:26:21.989Z,31.13
2022-12-24T20:28:50.072Z,36.43
2022-12-24T20:31:19.688Z,33.10
2022-12-24T20:33:47.917Z,32.47
2022-12-24T20:36:16.982Z,29.50
2022-12-24T20:38:48.303Z,35.23
2022-12-24T20:41:17.176Z,33.10
2022-12-24T20:43:48.400Z,35.33
2022-12-24T20:46:20.567Z,33.90
2022-12-24T20:48:49.130Z,38.57
2022-12-24T20:51:23.773Z,35.73
2022-12-24T20:53:53.276Z,37.40
2022-12-24T20:56:20.980Z,27.23
2022-12-24T20:58:52.183Z,28.43
2022-12-24T21:01:21.303Z,34.63
2022-12-24T21:03:52.280Z,28.73
2022-12-24T21:06:20.079Z,31.43
2022-12-24T21:08:49.703Z,38.53
2022-12-24T21:11:17.644Z,37.77
2022-12-24T21:13:45.308Z,27.03
2022-12-24T21:16:13.002Z,32.73
2022-12-24T21:18:43.463Z,28.73
2022-12-24T21:21:11.078Z,38.20
2022-12-24T21:23:38.680Z,34.00
2022-12-24T21:26:06.357Z,29.30
2022-12-24T21:28:34.021Z,31.73
2022-12-24T21:31:01.787Z,30.93
2022-12-24T21:33:34.783Z,31.13
2022-12-24T21:36:05.703Z,28.57
2022-12-24T21:38:33.514Z,31.17
2022-12-24T21:41:05.249Z,30.27
2022-12-24T21:43:33.733Z,31.33
2022-12-24T21:46:01.592Z,31.17
2022-12-24T21:48:29.386Z,31.33
2022-12-24T21:50:57.015Z,33.17
2022-12-24T21:53:24.663Z,30.90
2022-12-24T21:55:55.400Z,38.27
2022-12-24T21:58:26.139Z,37.47
2022-12-24T22:00:53.900Z,31.10
2022-12-24T22:03:22.462Z,27.50
2022-12-24T22:05:50.230Z,25.30
2022-12-24T22:08:17.873Z,29.77
2022-12-24T22:10:45.663Z,30.00
2022-12-24T22:13:16.109Z,29.03
2022-12-24T22:15:48.193Z,29.13
2022-12-24T22:18:17.021Z,24.13
2022-12-24T22:20:45.122Z,30.20
2022-12-24T22:23:13.493Z,32.80
2022-12-24T22:25:41.645Z,28.23
2022-12-24T22:28:09.276Z,28.87
2022-12-24T22:30:39.563Z,27.30
2022-12-24T22:33:07.454Z,26.50
2022-12-24T22:35:41.365Z,27.10
2022-12-24T22:38:09.774Z,26.90
2022-12-24T22:40:40.543Z,23.70
2022-12-24T22:43:08.273Z,33.10
2022-12-24T22:45:35.917Z,19.97
2022-12-24T22:48:03.654Z,24.97
2022-12-24T22:50:31.267Z,28.40
2022-12-24T22:52:58.882Z,24.57
2022-12-24T22:55:26.515Z,25.97
2022-12-24T22:57:54.169Z,25.43
2022-12-24T23:00:57.109Z,25.50
2022-12-24T23:03:25.001Z,25.77
2022-12-24T23:06:02.817Z,32.40
2022-12-24T23:08:31.480Z,26.83
2022-12-24T23:11:08.923Z,35.33
2022-12-24T23:13:38.432Z,20.43
2022-12-24T23:16:07.422Z,23.70
2022-12-24T23:18:35.084Z,32.20
2022-12-24T23:21:05.446Z,23.83
2022-12-24T23:23:36.838Z,29.47
2022-12-24T23:26:09.399Z,22.57
2022-12-24T23:28:37.418Z,25.93
2022-12-24T23:31:05.339Z,24.57
2022-12-24T23:33:33.401Z,26.80
2022-12-24T23:36:01.167Z,28.53
2022-12-24T23:38:28.863Z,21.30
2022-12-24T23:40:57.005Z,25.13
2022-12-24T23:43:24.690Z,26.53
2022-12-24T23:45:55.285Z,22.23
2022-12-24T23:48:23.976Z,20.93
2022-12-24T23:50:52.019Z,24.47
2022-12-24T23:53:22.699Z,28.00
2022-12-24T23:55:50.354Z,24.97
2022-12-24T23:58:17.951Z,22.73
